This is the latest recevied weather packets stored in our database for station/object OK1PNK-5. If no packets are shown the sender has not sent any weather packets the latest 1 day(s).
| Time | Temp. | Humidity | Pressure | Rain* | Wind** | Luminosity | Snow |
|---|---|---|---|---|---|---|---|
| 1778004594 | 18.33° C | 75% | 962.1 hPa | 5.84 mm | 0.89 m/s, 103° | - | - |
| 1778003994 | 18.33° C | 75% | 961.9 hPa | 6.1 mm | 1.79 m/s, 333° | - | - |
| 1778003394 | 18.89° C | 73% | 962 hPa | 6.1 mm | 2.24 m/s, 336° | - | - |
| 1778002794 | 19.44° C | 69% | 962.4 hPa | 6.1 mm | 2.24 m/s, 337° | - | - |
| 1778002194 | 20.56° C | 64% | 962.8 hPa | 5.59 mm | 0.89 m/s, 315° | - | - |
| 1778001594 | 21.11° C | 59% | 963.4 hPa | 2.79 mm | 0.89 m/s, 320° | - | - |
| 1778000994 | 21.67° C | 53% | 963.1 hPa | 0.25 mm | 1.79 m/s, 107° | - | - |
| 1778000394 | 21.67° C | 50% | 962.1 hPa | 0 mm | 1.79 m/s, 333° | - | - |
| 1777999794 | 21.67° C | 50% | 962.1 hPa | 0 mm | 1.79 m/s, 333° | - | - |
| 1777999194 | 22.22° C | 46% | 962.2 hPa | 0 mm | 1.79 m/s, 329° | - | - |
| 1777998594 | 23.33° C | 43% | 962.3 hPa | 0 mm | 2.68 m/s, 332° | - | - |
| 1777996943 | 24.44° C | 39% | 962.4 hPa | 0 mm | 2.24 m/s, 330° | - | - |
| 1777996343 | 25° C | 36% | 962.5 hPa | 0 mm | 0.89 m/s, 315° | - | - |
| 1777995743 | 25° C | 35% | 962.6 hPa | 0 mm | 0.89 m/s, 270° | - | - |
| 1777995143 | 25.56° C | 35% | 962.6 hPa | 0 mm | 0.89 m/s, 315° | - | - |
| 1777994543 | 25.56° C | 30% | 962.7 hPa | 0 mm | 0.45 m/s, 32° | - | - |
| 1777993943 | 25.56° C | 30% | 962.7 hPa | 0 mm | 0.45 m/s, 161° | - | - |
| 1777993343 | 26.11° C | 29% | 962.7 hPa | 0 mm | 0.45 m/s, 5° | - | - |
| 1777992743 | 26.11° C | 29% | 962.8 hPa | 0 mm | 0.45 m/s, 45° | - | - |
| 1777992143 | 26.11° C | 30% | 962.9 hPa | 0 mm | 0.45 m/s, 45° | - | - |
| 1777991543 | 26.11° C | 30% | 963 hPa | 0 mm | 0.45 m/s, 45° | - | - |
| 1777990943 | 26.67° C | 29% | 963.1 hPa | 0 mm | 0.89 m/s, 111° | - | - |
| 1777990343 | 26.67° C | 29% | 963.3 hPa | 0 mm | 0.89 m/s, 108° | - | - |
| 1777989743 | 26.67° C | 29% | 963.5 hPa | 0 mm | 0.45 m/s, 128° | - | - |
| 1777989143 | 26.67° C | 30% | 963.6 hPa | 0 mm | 0.89 m/s, 116° | - | - |
* Rain latest hour (hover to see other rain measurements)
** Current wind speed in m/s (hover to see current wind gust speed)